sensor_id;sensor_type;location;lat;lon;timestamp;temperature;humidity
10171;DHT22;5127;50.922;6.988;2022-11-15T00:00:29;13.20;65.80
10171;DHT22;5127;50.922;6.988;2022-11-15T00:03:15;13.20;65.80
10171;DHT22;5127;50.922;6.988;2022-11-15T00:06:02;13.20;65.80
10171;DHT22;5127;50.922;6.988;2022-11-15T00:08:49;13.20;65.80
10171;DHT22;5127;50.922;6.988;2022-11-15T00:11:35;13.30;65.90
10171;DHT22;5127;50.922;6.988;2022-11-15T00:14:22;13.30;66.00
10171;DHT22;5127;50.922;6.988;2022-11-15T00:17:08;13.30;66.10
10171;DHT22;5127;50.922;6.988;2022-11-15T00:19:54;13.30;66.20
10171;DHT22;5127;50.922;6.988;2022-11-15T00:22:40;13.30;66.30
10171;DHT22;5127;50.922;6.988;2022-11-15T00:25:26;13.40;66.40
10171;DHT22;5127;50.922;6.988;2022-11-15T00:28:13;13.40;66.50
10171;DHT22;5127;50.922;6.988;2022-11-15T00:31:04;13.40;66.60
10171;DHT22;5127;50.922;6.988;2022-11-15T00:33:50;13.50;66.90
10171;DHT22;5127;50.922;6.988;2022-11-15T00:36:36;13.50;66.70
10171;DHT22;5127;50.922;6.988;2022-11-15T00:39:22;13.60;66.70
10171;DHT22;5127;50.922;6.988;2022-11-15T00:42:08;13.60;66.70
10171;DHT22;5127;50.922;6.988;2022-11-15T00:44:55;13.60;66.70
10171;DHT22;5127;50.922;6.988;2022-11-15T00:47:44;13.70;66.70
10171;DHT22;5127;50.922;6.988;2022-11-15T00:50:30;13.70;66.80
10171;DHT22;5127;50.922;6.988;2022-11-15T00:53:16;13.70;66.60
10171;DHT22;5127;50.922;6.988;2022-11-15T00:56:02;13.80;66.80
10171;DHT22;5127;50.922;6.988;2022-11-15T00:58:48;13.80;66.80
10171;DHT22;5127;50.922;6.988;2022-11-15T01:01:34;13.80;66.80
10171;DHT22;5127;50.922;6.988;2022-11-15T01:04:22;13.90;66.90
10171;DHT22;5127;50.922;6.988;2022-11-15T01:07:08;13.90;66.90
10171;DHT22;5127;50.922;6.988;2022-11-15T01:09:54;13.90;66.90
10171;DHT22;5127;50.922;6.988;2022-11-15T01:12:40;14.00;66.90
10171;DHT22;5127;50.922;6.988;2022-11-15T01:15:26;14.00;66.90
10171;DHT22;5127;50.922;6.988;2022-11-15T01:18:12;14.00;66.90
10171;DHT22;5127;50.922;6.988;2022-11-15T01:20:59;14.10;67.00
10171;DHT22;5127;50.922;6.988;2022-11-15T01:23:45;14.20;67.10
10171;DHT22;5127;50.922;6.988;2022-11-15T01:26:31;14.10;66.90
10171;DHT22;5127;50.922;6.988;2022-11-15T01:29:17;14.20;67.00
10171;DHT22;5127;50.922;6.988;2022-11-15T01:32:04;14.30;67.20
10171;DHT22;5127;50.922;6.988;2022-11-15T01:34:50;14.20;67.00
10171;DHT22;5127;50.922;6.988;2022-11-15T01:37:37;14.20;67.10
10171;DHT22;5127;50.922;6.988;2022-11-15T01:40:23;14.30;67.20
10171;DHT22;5127;50.922;6.988;2022-11-15T01:43:23;14.30;67.20
10171;DHT22;5127;50.922;6.988;2022-11-15T01:46:22;14.30;67.40
10171;DHT22;5127;50.922;6.988;2022-11-15T01:49:12;14.40;67.40
10171;DHT22;5127;50.922;6.988;2022-11-15T01:52:00;14.40;67.20
10171;DHT22;5127;50.922;6.988;2022-11-15T01:54:52;14.40;67.20
10171;DHT22;5127;50.922;6.988;2022-11-15T01:57:40;14.50;67.30
10171;DHT22;5127;50.922;6.988;2022-11-15T02:00:29;14.50;67.20
10171;DHT22;5127;50.922;6.988;2022-11-15T02:03:15;14.50;67.20
10171;DHT22;5127;50.922;6.988;2022-11-15T02:06:02;14.50;67.10
10171;DHT22;5127;50.922;6.988;2022-11-15T02:08:49;14.50;67.10
10171;DHT22;5127;50.922;6.988;2022-11-15T02:11:36;14.50;67.00
10171;DHT22;5127;50.922;6.988;2022-11-15T02:14:25;14.50;67.00
10171;DHT22;5127;50.922;6.988;2022-11-15T02:17:31;14.60;67.10
10171;DHT22;5127;50.922;6.988;2022-11-15T02:20:39;14.60;67.10
10171;DHT22;5127;50.922;6.988;2022-11-15T02:30:24;14.60;67.20
10171;DHT22;5127;50.922;6.988;2022-11-15T02:33:18;14.60;67.20
10171;DHT22;5127;50.922;6.988;2022-11-15T02:36:11;14.60;67.10
10171;DHT22;5127;50.922;6.988;2022-11-15T02:39:02;14.60;67.20
10171;DHT22;5127;50.922;6.988;2022-11-15T02:41:53;14.60;67.10
10171;DHT22;5127;50.922;6.988;2022-11-15T02:44:44;14.60;67.20
10171;DHT22;5127;50.922;6.988;2022-11-15T02:47:36;14.60;67.20
10171;DHT22;5127;50.922;6.988;2022-11-15T02:50:27;14.70;67.30
10171;DHT22;5127;50.922;6.988;2022-11-15T02:53:14;14.70;67.30
10171;DHT22;5127;50.922;6.988;2022-11-15T02:56:00;14.70;67.30
10171;DHT22;5127;50.922;6.988;2022-11-15T02:59:17;14.70;67.30
10171;DHT22;5127;50.922;6.988;2022-11-15T03:02:21;14.70;67.50
10171;DHT22;5127;50.922;6.988;2022-11-15T03:05:16;14.70;67.50
10171;DHT22;5127;50.922;6.988;2022-11-15T03:08:08;14.70;67.40
10171;DHT22;5127;50.922;6.988;2022-11-15T03:11:02;14.70;67.40
10171;DHT22;5127;50.922;6.988;2022-11-15T03:13:54;14.70;67.60
10171;DHT22;5127;50.922;6.988;2022-11-15T03:16:46;14.80;67.60
10171;DHT22;5127;50.922;6.988;2022-11-15T03:19:39;14.80;67.60
10171;DHT22;5127;50.922;6.988;2022-11-15T03:22:31;14.80;67.60
10171;DHT22;5127;50.922;6.988;2022-11-15T03:25:20;14.80;67.60
10171;DHT22;5127;50.922;6.988;2022-11-15T03:28:10;14.90;67.70
10171;DHT22;5127;50.922;6.988;2022-11-15T03:30:58;14.90;67.70
10171;DHT22;5127;50.922;6.988;2022-11-15T03:33:45;14.90;67.70
10171;DHT22;5127;50.922;6.988;2022-11-15T03:36:32;14.90;67.60
10171;DHT22;5127;50.922;6.988;2022-11-15T03:39:21;14.90;67.60
10171;DHT22;5127;50.922;6.988;2022-11-15T03:42:16;14.90;67.60
10171;DHT22;5127;50.922;6.988;2022-11-15T03:45:10;15.00;67.80
10171;DHT22;5127;50.922;6.988;2022-11-15T03:48:01;15.00;67.70
10171;DHT22;5127;50.922;6.988;2022-11-15T03:50:48;15.00;67.60
10171;DHT22;5127;50.922;6.988;2022-11-15T03:53:34;14.90;67.40
10171;DHT22;5127;50.922;6.988;2022-11-15T03:56:21;15.00;67.50
10171;DHT22;5127;50.922;6.988;2022-11-15T03:59:07;15.00;67.50
10171;DHT22;5127;50.922;6.988;2022-11-15T04:01:53;15.00;67.50
10171;DHT22;5127;50.922;6.988;2022-11-15T04:04:39;15.10;67.50
10171;DHT22;5127;50.922;6.988;2022-11-15T04:07:25;15.10;67.50
10171;DHT22;5127;50.922;6.988;2022-11-15T04:10:12;15.10;67.50
10171;DHT22;5127;50.922;6.988;2022-11-15T04:13:01;15.10;67.40
10171;DHT22;5127;50.922;6.988;2022-11-15T04:15:47;15.10;67.40
10171;DHT22;5127;50.922;6.988;2022-11-15T04:18:33;15.10;67.40
10171;DHT22;5127;50.922;6.988;2022-11-15T04:21:19;15.10;67.40
10171;DHT22;5127;50.922;6.988;2022-11-15T04:24:23;15.10;67.40
10171;DHT22;5127;50.922;6.988;2022-11-15T04:27:09;15.10;67.30
10171;DHT22;5127;50.922;6.988;2022-11-15T04:29:58;15.10;67.30
10171;DHT22;5127;50.922;6.988;2022-11-15T04:32:44;15.10;67.30
10171;DHT22;5127;50.922;6.988;2022-11-15T04:35:30;15.20;67.40
10171;DHT22;5127;50.922;6.988;2022-11-15T04:38:16;15.10;67.30
10171;DHT22;5127;50.922;6.988;2022-11-15T04:41:02;15.10;67.40
10171;DHT22;5127;50.922;6.988;2022-11-15T04:43:48;15.20;67.50
10171;DHT22;5127;50.922;6.988;2022-11-15T04:46:35;15.20;67.50
10171;DHT22;5127;50.922;6.988;2022-11-15T04:49:21;15.20;67.50
10171;DHT22;5127;50.922;6.988;2022-11-15T04:52:07;15.20;67.50
10171;DHT22;5127;50.922;6.988;2022-11-15T04:54:53;15.20;67.40
10171;DHT22;5127;50.922;6.988;2022-11-15T04:57:39;15.20;67.50
10171;DHT22;5127;50.922;6.988;2022-11-15T05:00:25;15.20;67.40
10171;DHT22;5127;50.922;6.988;2022-11-15T05:03:12;15.20;67.40
10171;DHT22;5127;50.922;6.988;2022-11-15T05:06:16;15.20;67.40
10171;DHT22;5127;50.922;6.988;2022-11-15T05:09:02;15.20;67.30
10171;DHT22;5127;50.922;6.988;2022-11-15T05:11:48;15.20;67.20
10171;DHT22;5127;50.922;6.988;2022-11-15T05:14:33;15.20;67.10
10171;DHT22;5127;50.922;6.988;2022-11-15T05:17:19;15.10;67.00
10171;DHT22;5127;50.922;6.988;2022-11-15T05:20:08;15.10;67.00
10171;DHT22;5127;50.922;6.988;2022-11-15T05:22:54;15.10;67.00
10171;DHT22;5127;50.922;6.988;2022-11-15T05:25:40;15.00;66.90
10171;DHT22;5127;50.922;6.988;2022-11-15T05:28:26;15.00;66.90
10171;DHT22;5127;50.922;6.988;2022-11-15T05:31:13;15.00;66.90
10171;DHT22;5127;50.922;6.988;2022-11-15T05:34:05;14.90;67.00
10171;DHT22;5127;50.922;6.988;2022-11-15T05:36:52;14.90;67.10
10171;DHT22;5127;50.922;6.988;2022-11-15T05:39:39;14.80;66.90
10171;DHT22;5127;50.922;6.988;2022-11-15T05:42:25;14.80;66.90
10171;DHT22;5127;50.922;6.988;2022-11-15T05:45:12;14.80;67.00
10171;DHT22;5127;50.922;6.988;2022-11-15T05:48:00;14.70;66.90
10171;DHT22;5127;50.922;6.988;2022-11-15T05:50:47;14.70;67.00
10171;DHT22;5127;50.922;6.988;2022-11-15T05:53:35;14.70;66.90
10171;DHT22;5127;50.922;6.988;2022-11-15T05:56:22;14.60;67.00
10171;DHT22;5127;50.922;6.988;2022-11-15T05:59:09;14.60;67.00
10171;DHT22;5127;50.922;6.988;2022-11-15T06:01:55;14.50;66.80
10171;DHT22;5127;50.922;6.988;2022-11-15T06:04:46;14.50;66.80
10171;DHT22;5127;50.922;6.988;2022-11-15T06:07:36;14.40;66.90
10171;DHT22;5127;50.922;6.988;2022-11-15T06:10:26;14.40;66.90
10171;DHT22;5127;50.922;6.988;2022-11-15T06:13:12;14.40;66.90
10171;DHT22;5127;50.922;6.988;2022-11-15T06:15:58;14.30;66.80
10171;DHT22;5127;50.922;6.988;2022-11-15T06:18:44;14.20;66.80
10171;DHT22;5127;50.922;6.988;2022-11-15T06:21:30;14.20;66.90
10171;DHT22;5127;50.922;6.988;2022-11-15T06:24:16;14.20;66.90
10171;DHT22;5127;50.922;6.988;2022-11-15T06:27:04;14.10;66.90
10171;DHT22;5127;50.922;6.988;2022-11-15T06:29:49;14.10;67.00
10171;DHT22;5127;50.922;6.988;2022-11-15T06:32:36;14.10;67.00
10171;DHT22;5127;50.922;6.988;2022-11-15T06:35:22;14.10;67.10
10171;DHT22;5127;50.922;6.988;2022-11-15T06:38:09;14.00;67.00
10171;DHT22;5127;50.922;6.988;2022-11-15T06:41:01;14.00;67.10
10171;DHT22;5127;50.922;6.988;2022-11-15T06:43:48;14.00;67.30
10171;DHT22;5127;50.922;6.988;2022-11-15T06:46:34;14.00;67.10
10171;DHT22;5127;50.922;6.988;2022-11-15T06:49:20;14.00;67.10
10171;DHT22;5127;50.922;6.988;2022-11-15T06:52:06;13.90;67.00
10171;DHT22;5127;50.922;6.988;2022-11-15T06:54:52;13.90;67.10
10171;DHT22;5127;50.922;6.988;2022-11-15T06:57:46;13.90;67.10
10171;DHT22;5127;50.922;6.988;2022-11-15T07:00:33;13.80;67.40
10171;DHT22;5127;50.922;6.988;2022-11-15T07:03:19;13.80;67.20
10171;DHT22;5127;50.922;6.988;2022-11-15T07:06:06;13.80;67.20
10171;DHT22;5127;50.922;6.988;2022-11-15T07:08:53;13.80;67.20
10171;DHT22;5127;50.922;6.988;2022-11-15T07:11:39;13.80;67.20
10171;DHT22;5127;50.922;6.988;2022-11-15T07:14:25;13.80;67.30
10171;DHT22;5127;50.922;6.988;2022-11-15T07:17:12;13.70;67.20
10171;DHT22;5127;50.922;6.988;2022-11-15T07:19:58;13.70;67.30
10171;DHT22;5127;50.922;6.988;2022-11-15T07:22:44;13.70;67.30
10171;DHT22;5127;50.922;6.988;2022-11-15T07:25:30;13.70;67.30
10171;DHT22;5127;50.922;6.988;2022-11-15T07:28:16;13.70;67.40
10171;DHT22;5127;50.922;6.988;2022-11-15T07:31:03;13.70;67.40
10171;DHT22;5127;50.922;6.988;2022-11-15T07:33:50;13.70;67.40
10171;DHT22;5127;50.922;6.988;2022-11-15T07:36:36;13.70;67.50
10171;DHT22;5127;50.922;6.988;2022-11-15T07:39:22;13.70;67.50
10171;DHT22;5127;50.922;6.988;2022-11-15T07:42:08;13.70;67.50
10171;DHT22;5127;50.922;6.988;2022-11-15T07:45:12;13.70;67.60
10171;DHT22;5127;50.922;6.988;2022-11-15T07:47:58;13.70;67.80
10171;DHT22;5127;50.922;6.988;2022-11-15T07:50:46;13.80;68.20
10171;DHT22;5127;50.922;6.988;2022-11-15T07:53:32;13.90;68.60
10171;DHT22;5127;50.922;6.988;2022-11-15T07:56:17;14.00;68.70
10171;DHT22;5127;50.922;6.988;2022-11-15T07:59:05;14.20;68.80
10171;DHT22;5127;50.922;6.988;2022-11-15T08:01:51;14.30;68.70
10171;DHT22;5127;50.922;6.988;2022-11-15T08:04:36;14.50;68.50
10171;DHT22;5127;50.922;6.988;2022-11-15T08:07:24;14.60;68.20
10171;DHT22;5127;50.922;6.988;2022-11-15T08:10:10;14.70;67.90
10171;DHT22;5127;50.922;6.988;2022-11-15T08:12:57;14.80;67.70
10171;DHT22;5127;50.922;6.988;2022-11-15T08:15:44;14.80;67.40
10171;DHT22;5127;50.922;6.988;2022-11-15T08:18:30;14.80;67.10
10171;DHT22;5127;50.922;6.988;2022-11-15T08:21:19;14.90;67.00
10171;DHT22;5127;50.922;6.988;2022-11-15T08:24:09;14.90;66.80
10171;DHT22;5127;50.922;6.988;2022-11-15T08:26:55;14.90;66.70
10171;DHT22;5127;50.922;6.988;2022-11-15T08:29:42;14.80;66.60
10171;DHT22;5127;50.922;6.988;2022-11-15T08:32:28;14.90;66.70
10171;DHT22;5127;50.922;6.988;2022-11-15T08:35:14;14.80;66.60
10171;DHT22;5127;50.922;6.988;2022-11-15T08:38:00;14.80;66.60
10171;DHT22;5127;50.922;6.988;2022-11-15T08:40:47;14.80;66.60
10171;DHT22;5127;50.922;6.988;2022-11-15T08:43:33;14.80;66.60
10171;DHT22;5127;50.922;6.988;2022-11-15T08:46:19;14.80;66.60
10171;DHT22;5127;50.922;6.988;2022-11-15T08:49:05;14.90;66.80
10171;DHT22;5127;50.922;6.988;2022-11-15T08:51:51;14.90;66.80
10171;DHT22;5127;50.922;6.988;2022-11-15T08:54:37;14.90;66.70
10171;DHT22;5127;50.922;6.988;2022-11-15T08:57:27;15.00;66.80
10171;DHT22;5127;50.922;6.988;2022-11-15T09:00:14;15.00;66.70
10171;DHT22;5127;50.922;6.988;2022-11-15T09:03:01;15.00;66.70
10171;DHT22;5127;50.922;6.988;2022-11-15T09:05:48;15.00;66.70
10171;DHT22;5127;50.922;6.988;2022-11-15T09:08:34;15.10;66.70
10171;DHT22;5127;50.922;6.988;2022-11-15T09:11:20;15.10;66.70
10171;DHT22;5127;50.922;6.988;2022-11-15T09:14:10;15.20;66.80
10171;DHT22;5127;50.922;6.988;2022-11-15T09:16:56;15.30;66.80
10171;DHT22;5127;50.922;6.988;2022-11-15T09:19:42;15.30;66.80
10171;DHT22;5127;50.922;6.988;2022-11-15T09:22:28;15.30;66.60
10171;DHT22;5127;50.922;6.988;2022-11-15T09:25:14;15.40;66.60
10171;DHT22;5127;50.922;6.988;2022-11-15T09:28:00;15.40;66.30
10171;DHT22;5127;50.922;6.988;2022-11-15T09:30:47;15.40;66.20
10171;DHT22;5127;50.922;6.988;2022-11-15T09:33:33;15.50;66.00
10171;DHT22;5127;50.922;6.988;2022-11-15T09:36:19;15.50;65.90
10171;DHT22;5127;50.922;6.988;2022-11-15T09:39:05;15.50;65.70
10171;DHT22;5127;50.922;6.988;2022-11-15T09:42:21;15.50;65.50
10171;DHT22;5127;50.922;6.988;2022-11-15T09:45:15;15.50;64.80
10171;DHT22;5127;50.922;6.988;2022-11-15T09:51:25;15.60;64.60
10171;DHT22;5127;50.922;6.988;2022-11-15T09:54:00;15.60;64.50
10171;DHT22;5127;50.922;6.988;2022-11-15T09:56:30;15.60;64.20
10171;DHT22;5127;50.922;6.988;2022-11-15T09:59:10;15.60;64.20
10171;DHT22;5127;50.922;6.988;2022-11-15T10:01:44;15.60;63.80
10171;DHT22;5127;50.922;6.988;2022-11-15T10:04:15;15.60;63.70
10171;DHT22;5127;50.922;6.988;2022-11-15T10:06:46;15.60;63.50
10171;DHT22;5127;50.922;6.988;2022-11-15T10:09:20;15.60;63.40
10171;DHT22;5127;50.922;6.988;2022-11-15T10:11:50;15.60;63.50
10171;DHT22;5127;50.922;6.988;2022-11-15T10:14:21;15.70;63.80
10171;DHT22;5127;50.922;6.988;2022-11-15T10:17:09;15.70;63.50
10171;DHT22;5127;50.922;6.988;2022-11-15T10:19:50;15.70;62.40
10171;DHT22;5127;50.922;6.988;2022-11-15T10:22:25;15.80;62.70
10171;DHT22;5127;50.922;6.988;2022-11-15T10:25:04;15.80;63.00
10171;DHT22;5127;50.922;6.988;2022-11-15T10:27:37;15.80;62.60
10171;DHT22;5127;50.922;6.988;2022-11-15T10:30:11;15.80;62.90
10171;DHT22;5127;50.922;6.988;2022-11-15T10:32:40;15.80;62.30
10171;DHT22;5127;50.922;6.988;2022-11-15T10:35:22;15.90;62.40
10171;DHT22;5127;50.922;6.988;2022-11-15T10:37:50;15.90;61.70
10171;DHT22;5127;50.922;6.988;2022-11-15T10:40:20;15.90;62.40
10171;DHT22;5127;50.922;6.988;2022-11-15T10:42:48;15.90;62.00
10171;DHT22;5127;50.922;6.988;2022-11-15T10:45:27;16.00;62.10
10171;DHT22;5127;50.922;6.988;2022-11-15T10:48:25;16.00;61.10
10171;DHT22;5127;50.922;6.988;2022-11-15T10:50:54;16.00;60.60
10171;DHT22;5127;50.922;6.988;2022-11-15T10:53:29;16.00;61.20
10171;DHT22;5127;50.922;6.988;2022-11-15T10:56:01;16.00;60.40
10171;DHT22;5127;50.922;6.988;2022-11-15T10:58:34;16.00;60.80
10171;DHT22;5127;50.922;6.988;2022-11-15T11:01:14;16.00;60.40
10171;DHT22;5127;50.922;6.988;2022-11-15T11:03:42;16.10;59.30
10171;DHT22;5127;50.922;6.988;2022-11-15T11:06:13;16.10;60.20
10171;DHT22;5127;50.922;6.988;2022-11-15T11:08:54;16.10;59.60
10171;DHT22;5127;50.922;6.988;2022-11-15T11:11:21;16.10;59.20
10171;DHT22;5127;50.922;6.988;2022-11-15T11:13:49;16.10;60.00
10171;DHT22;5127;50.922;6.988;2022-11-15T11:16:30;16.10;59.90
10171;DHT22;5127;50.922;6.988;2022-11-15T11:19:08;16.10;59.10
10171;DHT22;5127;50.922;6.988;2022-11-15T11:21:46;16.10;59.10
10171;DHT22;5127;50.922;6.988;2022-11-15T11:24:22;16.10;58.80
10171;DHT22;5127;50.922;6.988;2022-11-15T11:27:03;16.10;59.10
10171;DHT22;5127;50.922;6.988;2022-11-15T11:29:44;16.20;58.80
10171;DHT22;5127;50.922;6.988;2022-11-15T11:32:28;16.20;58.90
10171;DHT22;5127;50.922;6.988;2022-11-15T11:35:00;16.20;58.20
10171;DHT22;5127;50.922;6.988;2022-11-15T11:37:35;16.20;58.70
10171;DHT22;5127;50.922;6.988;2022-11-15T11:40:16;16.20;58.50
10171;DHT22;5127;50.922;6.988;2022-11-15T11:42:53;16.20;57.90
10171;DHT22;5127;50.922;6.988;2022-11-15T11:45:50;16.20;58.00
10171;DHT22;5127;50.922;6.988;2022-11-15T11:48:27;16.30;57.70
10171;DHT22;5127;50.922;6.988;2022-11-15T11:51:02;16.30;58.20
10171;DHT22;5127;50.922;6.988;2022-11-15T11:53:39;16.30;58.50
10171;DHT22;5127;50.922;6.988;2022-11-15T11:56:24;16.30;58.30
10171;DHT22;5127;50.922;6.988;2022-11-15T11:58:53;16.40;58.20
10171;DHT22;5127;50.922;6.988;2022-11-15T12:01:23;16.50;59.00
10171;DHT22;5127;50.922;6.988;2022-11-15T12:03:55;16.40;58.70
10171;DHT22;5127;50.922;6.988;2022-11-15T12:06:31;16.40;58.40
10171;DHT22;5127;50.922;6.988;2022-11-15T12:09:06;16.50;58.50
10171;DHT22;5127;50.922;6.988;2022-11-15T12:11:38;16.50;58.30
10171;DHT22;5127;50.922;6.988;2022-11-15T12:14:27;16.60;58.70
10171;DHT22;5127;50.922;6.988;2022-11-15T12:16:57;16.60;58.40
10171;DHT22;5127;50.922;6.988;2022-11-15T12:19:25;16.60;59.10
10171;DHT22;5127;50.922;6.988;2022-11-15T12:21:57;16.70;59.20
10171;DHT22;5127;50.922;6.988;2022-11-15T12:24:32;16.70;58.80
10171;DHT22;5127;50.922;6.988;2022-11-15T12:27:07;16.80;58.70
10171;DHT22;5127;50.922;6.988;2022-11-15T12:29:39;16.80;58.50
10171;DHT22;5127;50.922;6.988;2022-11-15T12:32:22;16.80;58.60
10171;DHT22;5127;50.922;6.988;2022-11-15T12:34:52;16.90;58.30
10171;DHT22;5127;50.922;6.988;2022-11-15T12:37:48;16.90;58.90
10171;DHT22;5127;50.922;6.988;2022-11-15T12:40:25;17.00;57.50
10171;DHT22;5127;50.922;6.988;2022-11-15T12:45:41;17.00;58.10
10171;DHT22;5127;50.922;6.988;2022-11-15T12:48:46;17.00;59.20
10171;DHT22;5127;50.922;6.988;2022-11-15T12:51:14;17.00;57.80
10171;DHT22;5127;50.922;6.988;2022-11-15T12:53:41;17.00;58.80
10171;DHT22;5127;50.922;6.988;2022-11-15T12:56:21;17.10;58.90
10171;DHT22;5127;50.922;6.988;2022-11-15T12:58:51;17.10;58.20
10171;DHT22;5127;50.922;6.988;2022-11-15T13:01:56;17.10;58.90
10171;DHT22;5127;50.922;6.988;2022-11-15T13:04:27;17.20;58.30
10171;DHT22;5127;50.922;6.988;2022-11-15T13:06:56;17.20;59.10
10171;DHT22;5127;50.922;6.988;2022-11-15T13:12:51;17.20;58.70
10171;DHT22;5127;50.922;6.988;2022-11-15T13:15:45;17.20;59.00
10171;DHT22;5127;50.922;6.988;2022-11-15T13:18:35;17.20;59.10
10171;DHT22;5127;50.922;6.988;2022-11-15T13:21:05;17.30;59.20
10171;DHT22;5127;50.922;6.988;2022-11-15T13:23:58;17.30;59.40
10171;DHT22;5127;50.922;6.988;2022-11-15T13:26:26;17.30;59.40
10171;DHT22;5127;50.922;6.988;2022-11-15T13:28:54;17.30;59.40
10171;DHT22;5127;50.922;6.988;2022-11-15T13:31:28;17.30;59.40
10171;DHT22;5127;50.922;6.988;2022-11-15T13:33:59;17.30;59.20
10171;DHT22;5127;50.922;6.988;2022-11-15T13:36:28;17.30;59.50
10171;DHT22;5127;50.922;6.988;2022-11-15T13:38:59;17.30;59.40
10171;DHT22;5127;50.922;6.988;2022-11-15T13:41:28;17.30;59.50
10171;DHT22;5127;50.922;6.988;2022-11-15T13:43:58;17.30;59.50
10171;DHT22;5127;50.922;6.988;2022-11-15T13:46:26;17.30;59.50
10171;DHT22;5127;50.922;6.988;2022-11-15T13:48:56;17.30;59.70
10171;DHT22;5127;50.922;6.988;2022-11-15T13:51:30;17.30;59.50
10171;DHT22;5127;50.922;6.988;2022-11-15T13:54:03;17.40;59.20
10171;DHT22;5127;50.922;6.988;2022-11-15T13:56:33;17.30;58.90
10171;DHT22;5127;50.922;6.988;2022-11-15T13:59:08;17.40;59.40
10171;DHT22;5127;50.922;6.988;2022-11-15T14:01:36;17.30;58.90
10171;DHT22;5127;50.922;6.988;2022-11-15T14:04:03;17.30;59.40
10171;DHT22;5127;50.922;6.988;2022-11-15T14:06:31;17.30;59.40
10171;DHT22;5127;50.922;6.988;2022-11-15T14:09:01;17.30;59.40
10171;DHT22;5127;50.922;6.988;2022-11-15T14:11:29;17.30;59.40
10171;DHT22;5127;50.922;6.988;2022-11-15T14:14:11;17.30;59.40
10171;DHT22;5127;50.922;6.988;2022-11-15T14:16:40;17.30;59.10
10171;DHT22;5127;50.922;6.988;2022-11-15T14:19:11;17.30;59.50
10171;DHT22;5127;50.922;6.988;2022-11-15T14:22:13;17.30;59.40
10171;DHT22;5127;50.922;6.988;2022-11-15T14:24:42;17.30;59.50
10171;DHT22;5127;50.922;6.988;2022-11-15T14:27:18;17.30;59.40
10171;DHT22;5127;50.922;6.988;2022-11-15T14:29:47;17.30;59.00
10171;DHT22;5127;50.922;6.988;2022-11-15T14:32:16;17.30;59.40
10171;DHT22;5127;50.922;6.988;2022-11-15T14:34:44;17.20;59.30
10171;DHT22;5127;50.922;6.988;2022-11-15T14:37:20;17.30;59.30
10171;DHT22;5127;50.922;6.988;2022-11-15T14:39:49;17.30;59.10
10171;DHT22;5127;50.922;6.988;2022-11-15T14:42:17;17.20;59.40
10171;DHT22;5127;50.922;6.988;2022-11-15T14:44:44;17.20;59.40
10171;DHT22;5127;50.922;6.988;2022-11-15T14:47:13;17.20;59.40
10171;DHT22;5127;50.922;6.988;2022-11-15T14:49:40;17.20;59.30
10171;DHT22;5127;50.922;6.988;2022-11-15T14:52:21;17.20;59.40
10171;DHT22;5127;50.922;6.988;2022-11-15T14:54:50;17.20;59.00
10171;DHT22;5127;50.922;6.988;2022-11-15T14:57:17;17.20;59.40
10171;DHT22;5127;50.922;6.988;2022-11-15T14:59:44;17.20;59.40
10171;DHT22;5127;50.922;6.988;2022-11-15T15:02:17;17.20;59.30
10171;DHT22;5127;50.922;6.988;2022-11-15T15:04:45;17.20;59.00
10171;DHT22;5127;50.922;6.988;2022-11-15T15:07:13;17.20;59.30
10171;DHT22;5127;50.922;6.988;2022-11-15T15:09:40;17.20;59.30
10171;DHT22;5127;50.922;6.988;2022-11-15T15:12:15;17.10;59.10
10171;DHT22;5127;50.922;6.988;2022-11-15T15:14:43;17.20;59.00
10171;DHT22;5127;50.922;6.988;2022-11-15T15:17:10;17.10;59.20
10171;DHT22;5127;50.922;6.988;2022-11-15T15:19:39;17.10;59.30
10171;DHT22;5127;50.922;6.988;2022-11-15T15:22:10;17.10;59.20
10171;DHT22;5127;50.922;6.988;2022-11-15T15:24:40;17.10;59.20
10171;DHT22;5127;50.922;6.988;2022-11-15T15:27:08;17.00;59.20
10171;DHT22;5127;50.922;6.988;2022-11-15T15:29:35;17.00;59.20
10171;DHT22;5127;50.922;6.988;2022-11-15T15:32:02;17.00;59.20
10171;DHT22;5127;50.922;6.988;2022-11-15T15:34:30;17.00;59.30
10171;DHT22;5127;50.922;6.988;2022-11-15T15:37:09;17.00;59.20
10171;DHT22;5127;50.922;6.988;2022-11-15T15:39:36;17.00;59.00
10171;DHT22;5127;50.922;6.988;2022-11-15T15:42:03;16.90;59.20
10171;DHT22;5127;50.922;6.988;2022-11-15T15:44:31;16.90;59.20
10171;DHT22;5127;50.922;6.988;2022-11-15T15:46:59;16.90;59.30
10171;DHT22;5127;50.922;6.988;2022-11-15T15:49:27;16.90;59.30
10171;DHT22;5127;50.922;6.988;2022-11-15T15:51:54;16.80;59.20
10171;DHT22;5127;50.922;6.988;2022-11-15T15:54:22;16.80;59.30
10171;DHT22;5127;50.922;6.988;2022-11-15T15:56:50;16.80;59.30
10171;DHT22;5127;50.922;6.988;2022-11-15T15:59:17;16.80;59.40
10171;DHT22;5127;50.922;6.988;2022-11-15T16:01:44;16.80;59.40
10171;DHT22;5127;50.922;6.988;2022-11-15T16:04:11;16.80;59.50
10171;DHT22;5127;50.922;6.988;2022-11-15T16:06:40;16.80;59.60
10171;DHT22;5127;50.922;6.988;2022-11-15T16:09:13;16.80;59.60
10171;DHT22;5127;50.922;6.988;2022-11-15T16:11:44;16.80;59.50
10171;DHT22;5127;50.922;6.988;2022-11-15T16:14:11;16.80;59.60
10171;DHT22;5127;50.922;6.988;2022-11-15T16:16:39;16.80;59.70
10171;DHT22;5127;50.922;6.988;2022-11-15T16:19:07;16.80;59.70
10171;DHT22;5127;50.922;6.988;2022-11-15T16:21:35;16.70;59.60
10171;DHT22;5127;50.922;6.988;2022-11-15T16:24:02;16.70;59.60
10171;DHT22;5127;50.922;6.988;2022-11-15T16:26:30;16.80;59.70
10171;DHT22;5127;50.922;6.988;2022-11-15T16:28:59;16.70;59.60
10171;DHT22;5127;50.922;6.988;2022-11-15T16:31:27;16.70;59.60
10171;DHT22;5127;50.922;6.988;2022-11-15T16:33:54;16.70;59.60
10171;DHT22;5127;50.922;6.988;2022-11-15T16:36:23;16.80;59.70
10171;DHT22;5127;50.922;6.988;2022-11-15T16:38:52;16.80;59.70
10171;DHT22;5127;50.922;6.988;2022-11-15T16:41:19;16.80;59.80
10171;DHT22;5127;50.922;6.988;2022-11-15T16:43:47;16.80;59.70
10171;DHT22;5127;50.922;6.988;2022-11-15T16:46:17;16.80;59.70
10171;DHT22;5127;50.922;6.988;2022-11-15T16:48:45;16.80;59.60
10171;DHT22;5127;50.922;6.988;2022-11-15T16:51:13;16.80;59.70
10171;DHT22;5127;50.922;6.988;2022-11-15T16:53:41;16.80;59.70
10171;DHT22;5127;50.922;6.988;2022-11-15T16:56:18;16.70;59.70
10171;DHT22;5127;50.922;6.988;2022-11-15T16:58:46;16.80;59.60
10171;DHT22;5127;50.922;6.988;2022-11-15T17:01:18;16.70;59.70
10171;DHT22;5127;50.922;6.988;2022-11-15T17:03:45;16.70;59.50
10171;DHT22;5127;50.922;6.988;2022-11-15T17:06:13;16.70;59.70
10171;DHT22;5127;50.922;6.988;2022-11-15T17:08:43;16.70;59.70
10171;DHT22;5127;50.922;6.988;2022-11-15T17:11:13;16.70;59.70
10171;DHT22;5127;50.922;6.988;2022-11-15T17:13:41;16.70;59.60
10171;DHT22;5127;50.922;6.988;2022-11-15T17:16:10;16.70;59.70
10171;DHT22;5127;50.922;6.988;2022-11-15T17:18:39;16.80;59.80
10171;DHT22;5127;50.922;6.988;2022-11-15T17:21:09;16.70;59.70
10171;DHT22;5127;50.922;6.988;2022-11-15T17:23:38;16.70;59.80
10171;DHT22;5127;50.922;6.988;2022-11-15T17:26:06;16.70;59.90
10171;DHT22;5127;50.922;6.988;2022-11-15T17:28:34;16.70;59.90